createdAt,value
2022-08-27T00:00:49.255Z,21.42
2022-08-27T00:03:16.727Z,20.33
2022-08-27T00:05:43.908Z,23.85
2022-08-27T00:08:12.867Z,21.98
2022-08-27T00:10:41.088Z,17.77
2022-08-27T00:13:07.996Z,22.58
2022-08-27T00:15:35.121Z,20.85
2022-08-27T00:18:01.981Z,24.95
2022-08-27T00:20:28.798Z,20.45
2022-08-27T00:22:56.221Z,18.75
2022-08-27T00:25:23.486Z,18.95
2022-08-27T00:27:50.614Z,22.13
2022-08-27T00:30:21.103Z,19.02
2022-08-27T00:32:48.511Z,22.85
2022-08-27T00:35:16.698Z,20.83
2022-08-27T00:37:44.408Z,21.75
2022-08-27T00:40:15.806Z,20.92
2022-08-27T00:42:45.903Z,21.25
2022-08-27T00:45:22.325Z,20.67
2022-08-27T00:47:55.111Z,19.55
2022-08-27T00:50:39.019Z,20.83
2022-08-27T00:53:17.677Z,23.02
2022-08-27T00:55:47.760Z,19.20
2022-08-27T00:58:29.660Z,24.65
2022-08-27T01:00:58.232Z,19.15
2022-08-27T01:03:28.783Z,16.93
2022-08-27T01:05:58.633Z,18.35
2022-08-27T01:08:29.679Z,19.30
2022-08-27T01:10:58.504Z,18.40
2022-08-27T01:13:58.696Z,22.02
2022-08-27T01:16:21.890Z,24.13
2022-08-27T01:18:51.141Z,16.08
2022-08-27T01:21:26.483Z,25.50
2022-08-27T01:24:13.399Z,19.20
2022-08-27T01:26:41.472Z,17.33
2022-08-27T01:29:08.463Z,21.85
2022-08-27T01:31:35.325Z,25.02
2022-08-27T01:34:06.142Z,18.05
2022-08-27T01:36:33.832Z,20.60
2022-08-27T01:39:00.912Z,23.13
2022-08-27T01:41:28.108Z,20.13
2022-08-27T01:43:55.822Z,19.85
2022-08-27T01:46:25.953Z,18.02
2022-08-27T01:48:54.166Z,21.70
2022-08-27T01:51:21.122Z,20.30
2022-08-27T01:53:48.253Z,17.65
2022-08-27T01:56:15.718Z,18.83
2022-08-27T01:58:42.718Z,19.13
2022-08-27T02:01:12.752Z,18.23
2022-08-27T02:03:40.661Z,19.95
2022-08-27T02:06:10.570Z,20.65
2022-08-27T02:08:38.489Z,22.05
2022-08-27T02:11:06.143Z,25.20
2022-08-27T02:13:32.922Z,16.85
2022-08-27T02:16:00.330Z,19.98
2022-08-27T02:18:27.395Z,20.15
2022-08-27T02:20:54.203Z,19.50
2022-08-27T02:23:21.899Z,23.20
2022-08-27T02:25:49.103Z,19.35
2022-08-27T02:28:16.394Z,19.55
2022-08-27T02:30:43.485Z,22.67
2022-08-27T02:33:10.477Z,21.90
2022-08-27T02:35:43.160Z,17.65
2022-08-27T02:38:12.808Z,21.13
2022-08-27T02:43:25.389Z,21.70
2022-08-27T02:45:53.026Z,22.10
2022-08-27T02:48:20.339Z,20.52
2022-08-27T02:50:47.343Z,19.90
2022-08-27T02:53:14.404Z,21.98
2022-08-27T02:55:41.267Z,20.42
2022-08-27T02:58:08.735Z,19.13
2022-08-27T03:00:35.979Z,22.63
2022-08-27T03:03:03.171Z,25.10
2022-08-27T03:05:30.064Z,30.98
2022-08-27T03:07:59.530Z,29.33
2022-08-27T03:10:26.332Z,26.52
2022-08-27T03:12:53.267Z,27.48
2022-08-27T03:15:20.326Z,29.67
2022-08-27T03:18:05.633Z,29.60
2022-08-27T03:20:33.497Z,25.00
2022-08-27T03:23:00.685Z,23.83
2022-08-27T03:25:27.931Z,30.27
2022-08-27T03:27:55.197Z,22.63
2022-08-27T03:42:57.676Z,20.52
2022-08-27T03:45:24.752Z,19.20
2022-08-27T03:47:51.602Z,18.92
2022-08-27T03:50:18.390Z,20.52
2022-08-27T03:52:45.399Z,19.83
2022-08-27T03:55:13.858Z,17.88
2022-08-27T03:57:41.002Z,19.27
2022-08-27T04:00:15.699Z,23.85
2022-08-27T04:02:43.152Z,24.98
2022-08-27T04:05:12.186Z,23.63
2022-08-27T04:07:40.797Z,19.45
2022-08-27T04:10:09.622Z,22.52
2022-08-27T04:12:37.704Z,20.70
2022-08-27T04:15:05.840Z,18.88
2022-08-27T04:17:32.685Z,19.23
2022-08-27T04:20:18.738Z,18.77
2022-08-27T04:22:49.525Z,17.13
2022-08-27T04:25:16.734Z,18.10
2022-08-27T04:27:43.552Z,14.55
2022-08-27T04:30:10.753Z,17.90
2022-08-27T04:32:38.112Z,17.67
2022-08-27T04:35:05.719Z,15.23
2022-08-27T04:37:33.226Z,14.18
2022-08-27T04:40:00.750Z,15.60
2022-08-27T04:42:27.716Z,14.00
2022-08-27T04:44:54.756Z,21.50
2022-08-27T04:47:21.809Z,16.83
2022-08-27T04:49:48.652Z,15.60
2022-08-27T04:52:15.957Z,17.55
2022-08-27T05:06:12.301Z,17.40
2022-08-27T05:08:40.510Z,15.27
2022-08-27T05:11:10.668Z,14.27
2022-08-27T05:13:38.237Z,15.55
2022-08-27T05:16:12.431Z,12.93
2022-08-27T05:18:47.733Z,14.45
2022-08-27T05:21:19.396Z,13.68
2022-08-27T05:23:46.856Z,14.30
2022-08-27T05:26:14.931Z,14.63
2022-08-27T05:28:42.592Z,16.27
2022-08-27T05:31:11.558Z,17.00
2022-08-27T05:33:40.409Z,16.45
2022-08-27T05:36:14.730Z,21.73
2022-08-27T05:38:42.641Z,15.77
2022-08-27T05:41:16.003Z,16.97
2022-08-27T05:43:49.175Z,13.95
2022-08-27T05:46:20.523Z,15.80
2022-08-27T05:48:47.964Z,14.27
2022-08-27T05:51:25.343Z,15.55
2022-08-27T05:54:14.959Z,15.25
2022-08-27T05:56:43.093Z,20.02
2022-08-27T05:59:28.801Z,11.10
2022-08-27T06:01:56.535Z,14.07
2022-08-27T06:04:25.139Z,16.07
2022-08-27T06:06:52.727Z,14.25
2022-08-27T06:09:25.817Z,11.27
2022-08-27T06:11:57.628Z,20.85
2022-08-27T06:14:24.737Z,23.83
2022-08-27T06:16:51.628Z,13.90
2022-08-27T06:19:18.982Z,11.88
2022-08-27T06:21:45.945Z,13.82
2022-08-27T06:24:13.410Z,16.90
2022-08-27T06:26:43.884Z,17.05
2022-08-27T06:29:11.919Z,17.02
2022-08-27T06:31:40.596Z,13.63
2022-08-27T06:34:09.454Z,13.43
2022-08-27T06:36:39.105Z,20.65
2022-08-27T06:39:07.116Z,14.30
2022-08-27T06:41:34.855Z,16.85
2022-08-27T06:44:01.780Z,13.48
2022-08-27T06:46:29.712Z,17.38
2022-08-27T06:48:59.904Z,18.85
2022-08-27T06:51:30.404Z,15.52
2022-08-27T06:54:02.152Z,15.38
2022-08-27T06:56:29.956Z,16.10
2022-08-27T06:58:59.781Z,17.67
2022-08-27T07:01:30.503Z,16.40
2022-08-27T07:04:01.214Z,16.33
2022-08-27T07:06:30.453Z,16.10
2022-08-27T07:08:57.844Z,12.30
2022-08-27T07:11:25.640Z,16.60
2022-08-27T07:13:52.978Z,16.77
2022-08-27T07:16:23.921Z,14.95
2022-08-27T07:18:53.427Z,17.60
2022-08-27T07:21:21.455Z,16.15
2022-08-27T07:23:50.510Z,19.70
2022-08-27T07:26:18.096Z,18.20
2022-08-27T07:28:46.688Z,12.02
2022-08-27T07:31:17.209Z,19.88
2022-08-27T07:33:46.148Z,12.68
2022-08-27T07:36:21.949Z,19.05
2022-08-27T07:38:56.540Z,18.10
2022-08-27T07:41:32.005Z,19.25
2022-08-27T07:44:20.926Z,19.48
2022-08-27T07:46:55.936Z,15.60
2022-08-27T07:49:23.631Z,18.27
2022-08-27T07:51:51.145Z,19.85
2022-08-27T07:54:18.795Z,21.25
2022-08-27T07:56:54.698Z,15.77
2022-08-27T07:59:27.301Z,19.95
2022-08-27T08:01:56.276Z,13.82
2022-08-27T08:04:24.178Z,20.42
2022-08-27T08:06:51.811Z,15.18
2022-08-27T08:09:20.279Z,26.10
2022-08-27T08:11:47.489Z,20.33
2022-08-27T08:14:14.389Z,21.27
2022-08-27T08:16:41.462Z,30.00
2022-08-27T08:19:09.408Z,26.40
2022-08-27T08:21:36.632Z,21.70
2022-08-27T08:24:04.204Z,22.77
2022-08-27T08:26:31.292Z,24.83
2022-08-27T08:28:58.189Z,21.10
2022-08-27T08:31:25.925Z,21.08
2022-08-27T08:33:55.944Z,17.30
2022-08-27T08:36:22.755Z,24.50
2022-08-27T08:38:50.596Z,22.15
2022-08-27T08:41:42.251Z,21.70
2022-08-27T08:44:20.819Z,24.85
2022-08-27T08:46:59.582Z,19.02
2022-08-27T08:49:50.709Z,21.35
2022-08-27T08:52:47.857Z,24.67
2022-08-27T08:55:20.686Z,16.75
2022-08-27T08:57:55.082Z,21.73
2022-08-27T09:00:22.052Z,25.33
2022-08-27T09:02:54.599Z,26.77
2022-08-27T09:05:27.249Z,17.08
2022-08-27T09:08:32.963Z,16.73
2022-08-27T09:11:27.828Z,19.23
2022-08-27T09:14:34.368Z,19.45
2022-08-27T09:17:02.975Z,26.77
2022-08-27T09:19:38.003Z,22.08
2022-08-27T09:22:24.608Z,19.70
2022-08-27T09:25:07.090Z,26.07
2022-08-27T09:27:38.427Z,23.17
2022-08-27T09:30:09.638Z,16.77
2022-08-27T09:32:36.894Z,21.45
2022-08-27T09:35:08.638Z,18.23
2022-08-27T09:37:45.705Z,17.90
2022-08-27T09:40:27.667Z,18.15
2022-08-27T09:42:58.259Z,18.85
2022-08-27T09:45:28.807Z,11.88
2022-08-27T09:48:16.395Z,36.28
2022-08-27T09:50:47.954Z,22.67
2022-08-27T09:53:27.607Z,19.10
2022-08-27T09:56:07.847Z,18.20
2022-08-27T09:58:45.255Z,23.48
2022-08-27T10:01:27.578Z,18.23
2022-08-27T10:04:13.229Z,15.30
2022-08-27T10:06:51.539Z,18.15
2022-08-27T10:09:24.650Z,20.45
2022-08-27T10:12:03.653Z,19.70
2022-08-27T10:14:40.861Z,18.08
2022-08-27T10:17:12.760Z,17.55
2022-08-27T10:19:52.685Z,15.27
2022-08-27T10:22:45.847Z,19.83
2022-08-27T10:25:34.820Z,18.08
2022-08-27T10:28:22.933Z,21.95
2022-08-27T10:30:55.725Z,22.10
2022-08-27T10:33:31.326Z,21.30
2022-08-27T10:36:39.758Z,21.48
2022-08-27T10:39:28.491Z,25.55
2022-08-27T10:45:04.843Z,21.25
2022-08-27T10:47:43.702Z,18.80
2022-08-27T10:50:24.377Z,31.02
2022-08-27T10:53:00.617Z,19.70
2022-08-27T10:55:40.291Z,24.77
2022-08-27T10:58:16.437Z,16.73
2022-08-27T11:01:08.255Z,17.42
2022-08-27T11:03:50.867Z,34.20
2022-08-27T11:06:30.068Z,17.23
2022-08-27T11:09:07.699Z,23.60
2022-08-27T11:12:13.431Z,25.70
2022-08-27T11:14:43.126Z,14.02
2022-08-27T11:18:04.716Z,19.45
2022-08-27T11:20:39.503Z,17.30
2022-08-27T11:23:12.365Z,24.50
2022-08-27T11:25:53.035Z,17.35
2022-08-27T11:28:29.744Z,15.30
2022-08-27T11:31:11.557Z,19.15
2022-08-27T11:33:40.705Z,13.05
2022-08-27T11:36:29.041Z,18.63
2022-08-27T11:39:03.002Z,16.63
2022-08-27T11:41:45.408Z,18.08
2022-08-27T11:44:17.949Z,18.00
2022-08-27T11:46:49.412Z,20.40
2022-08-27T11:49:36.787Z,10.25
2022-08-27T11:52:07.504Z,16.65
2022-08-27T11:54:55.487Z,22.67
2022-08-27T11:57:32.619Z,23.88
2022-08-27T12:00:15.092Z,17.95
2022-08-27T12:02:43.965Z,15.07
2022-08-27T12:05:32.756Z,14.27
2022-08-27T12:08:01.159Z,20.52
2022-08-27T12:10:45.980Z,19.38
2022-08-27T12:13:16.167Z,20.60
2022-08-27T12:16:25.434Z,15.88
2022-08-27T12:19:00.157Z,10.73
2022-08-27T12:21:49.078Z,16.80
2022-08-27T12:24:34.060Z,12.95
2022-08-27T12:27:21.980Z,18.70
2022-08-27T12:29:53.477Z,13.18
2022-08-27T12:32:31.427Z,20.83
2022-08-27T12:37:57.017Z,19.85
2022-08-27T12:40:26.210Z,14.57
2022-08-27T12:43:10.581Z,17.27
2022-08-27T12:45:50.252Z,22.33
2022-08-27T12:48:37.433Z,13.85
2022-08-27T12:51:12.372Z,16.95
2022-08-27T12:53:54.474Z,18.90
2022-08-27T12:56:21.513Z,23.98
2022-08-27T12:59:08.068Z,20.23
2022-08-27T13:01:43.040Z,15.63
2022-08-27T13:04:21.918Z,13.00
2022-08-27T13:06:49.854Z,8.95
2022-08-27T13:09:24.891Z,16.80
2022-08-27T13:11:56.925Z,21.75
2022-08-27T13:14:27.003Z,13.02
2022-08-27T13:17:08.083Z,18.40
2022-08-27T13:19:56.142Z,12.35
2022-08-27T13:22:51.043Z,26.17
2022-08-27T13:25:30.931Z,12.93
2022-08-27T13:28:08.174Z,10.25
2022-08-27T13:30:42.186Z,12.63
2022-08-27T13:33:14.645Z,19.50
2022-08-27T13:35:43.801Z,14.75
2022-08-27T13:38:11.282Z,10.57
2022-08-27T13:40:55.635Z,13.32
2022-08-27T13:43:40.436Z,15.07
2022-08-27T13:46:12.242Z,11.82
2022-08-27T13:48:44.298Z,11.45
2022-08-27T13:51:13.204Z,14.77
2022-08-27T13:54:07.798Z,13.13
2022-08-27T13:56:37.897Z,18.15
2022-08-27T13:59:15.098Z,15.88
2022-08-27T14:01:58.612Z,12.38
2022-08-27T14:04:36.524Z,16.38
2022-08-27T14:07:25.603Z,16.50
2022-08-27T14:09:59.054Z,10.48
2022-08-27T14:12:37.237Z,18.83
2022-08-27T14:15:25.131Z,16.50
2022-08-27T14:17:51.992Z,19.88
2022-08-27T14:20:20.089Z,14.57
2022-08-27T14:22:47.349Z,21.23
2022-08-27T14:25:16.391Z,18.10
2022-08-27T14:27:54.077Z,21.02
2022-08-27T14:30:29.248Z,29.25
2022-08-27T14:33:02.027Z,21.95
2022-08-27T14:35:32.405Z,29.88
2022-08-27T14:38:04.623Z,21.25
2022-08-27T14:40:31.503Z,16.50
2022-08-27T14:43:00.193Z,12.90
2022-08-27T14:45:27.060Z,19.85
2022-08-27T14:47:59.041Z,14.60
2022-08-27T14:50:29.583Z,10.93
2022-08-27T14:52:56.480Z,23.00
2022-08-27T14:55:23.561Z,17.25
2022-08-27T14:57:51.186Z,19.30
2022-08-27T15:00:18.275Z,15.55
2022-08-27T15:02:48.273Z,15.40
2022-08-27T15:05:17.537Z,14.23
2022-08-27T15:07:47.198Z,17.30
2022-08-27T15:10:15.181Z,19.27
2022-08-27T15:12:42.950Z,19.40
2022-08-27T15:15:10.577Z,20.67
2022-08-27T15:17:37.933Z,18.65
2022-08-27T15:20:09.163Z,15.60
2022-08-27T15:22:43.953Z,20.20
2022-08-27T15:25:12.719Z,19.80
2022-08-27T15:27:40.223Z,15.80
2022-08-27T15:30:10.137Z,20.75
2022-08-27T15:32:41.472Z,17.95
2022-08-27T15:35:12.578Z,21.30
2022-08-27T15:37:40.960Z,13.23
2022-08-27T15:40:08.749Z,11.20
2022-08-27T15:42:35.644Z,14.23
2022-08-27T15:45:03.844Z,19.25
2022-08-27T15:47:30.640Z,15.70
2022-08-27T15:49:57.530Z,22.30
2022-08-27T15:52:24.748Z,12.45
2022-08-27T15:54:51.974Z,14.10
2022-08-27T15:57:20.508Z,16.60
2022-08-27T15:59:48.740Z,12.13
2022-08-27T16:02:18.864Z,9.55
2022-08-27T16:04:49.216Z,8.93
2022-08-27T16:07:20.274Z,13.98
2022-08-27T16:09:48.345Z,9.13
2022-08-27T16:12:22.419Z,16.08
2022-08-27T16:14:55.965Z,16.52
2022-08-27T16:17:24.447Z,19.52
2022-08-27T16:19:51.850Z,16.92
2022-08-27T16:22:19.317Z,15.93
2022-08-27T16:24:46.217Z,16.67
2022-08-27T16:27:13.082Z,19.27
2022-08-27T16:29:40.258Z,12.55
2022-08-27T16:32:14.211Z,14.93
2022-08-27T16:34:41.404Z,19.80
2022-08-27T16:37:08.247Z,17.48
2022-08-27T16:39:40.010Z,21.38
2022-08-27T16:42:10.284Z,27.92
2022-08-27T16:44:38.606Z,17.88
2022-08-27T16:47:06.314Z,20.80
2022-08-27T16:49:52.075Z,22.02
2022-08-27T16:52:20.903Z,21.65
2022-08-27T16:57:14.806Z,32.45
2022-08-27T16:59:41.633Z,22.00
2022-08-27T17:02:22.139Z,22.90
2022-08-27T17:05:07.231Z,21.08
2022-08-27T17:07:40.886Z,23.20
2022-08-27T17:10:13.312Z,24.13
2022-08-27T17:12:40.799Z,29.30
2022-08-27T17:15:09.710Z,26.75
2022-08-27T17:17:38.882Z,28.30
2022-08-27T17:22:35.004Z,29.60
2022-08-27T17:25:02.022Z,30.73
2022-08-27T17:27:29.763Z,32.65
2022-08-27T17:29:56.811Z,38.35
2022-08-27T17:32:23.726Z,30.02
2022-08-27T17:34:50.633Z,29.08
2022-08-27T17:37:18.934Z,31.23
2022-08-27T17:39:46.171Z,30.98
2022-08-27T17:42:13.054Z,25.67
2022-08-27T17:44:40.112Z,29.33
2022-08-27T17:47:08.527Z,31.45
2022-08-27T17:49:36.454Z,35.97
2022-08-27T17:52:15.358Z,35.47
2022-08-27T17:54:43.408Z,24.27
2022-08-27T17:57:16.955Z,29.33
2022-08-27T17:59:45.052Z,26.63
2022-08-27T18:02:23.631Z,22.10
2022-08-27T18:04:50.977Z,23.55
2022-08-27T18:07:19.256Z,29.67
2022-08-27T18:09:46.776Z,34.72
2022-08-27T18:12:17.768Z,37.60
2022-08-27T18:14:54.650Z,38.72
2022-08-27T18:17:21.502Z,37.90
2022-08-27T18:19:50.738Z,35.70
2022-08-27T18:22:18.205Z,36.40
2022-08-27T18:24:45.019Z,27.05
2022-08-27T18:27:12.149Z,33.70
2022-08-27T18:29:38.973Z,32.33
2022-08-27T18:32:05.906Z,38.00
2022-08-27T18:34:33.025Z,33.33
2022-08-27T18:36:59.890Z,24.70
2022-08-27T18:39:26.746Z,26.88
2022-08-27T18:41:54.464Z,34.92
2022-08-27T18:44:21.333Z,33.90
2022-08-27T18:46:48.200Z,28.65
2022-08-27T18:49:15.241Z,26.75
2022-08-27T18:51:43.523Z,42.08
2022-08-27T18:54:10.941Z,34.55
2022-08-27T18:56:37.999Z,28.42
2022-08-27T18:59:06.950Z,28.35
2022-08-27T19:01:33.883Z,24.58
2022-08-27T19:04:01.205Z,30.92
2022-08-27T19:06:28.151Z,30.25
2022-08-27T19:08:56.469Z,30.33
2022-08-27T19:11:23.562Z,30.08
2022-08-27T19:13:50.978Z,31.48
2022-08-27T19:16:46.559Z,38.80
2022-08-27T19:19:16.275Z,30.10
2022-08-27T19:24:15.494Z,32.03
2022-08-27T19:26:42.883Z,24.25
2022-08-27T19:29:10.140Z,24.20
2022-08-27T19:31:38.083Z,25.65
2022-08-27T19:34:06.308Z,29.15
2022-08-27T19:36:35.508Z,36.45
2022-08-27T19:39:04.372Z,33.92
2022-08-27T19:41:31.341Z,30.50
2022-08-27T19:43:58.820Z,21.40
2022-08-27T19:46:26.422Z,22.95
2022-08-27T19:48:53.293Z,24.52
2022-08-27T19:51:20.105Z,19.52
2022-08-27T19:53:47.587Z,19.67
2022-08-27T19:56:15.207Z,23.17
2022-08-27T19:58:42.969Z,17.63
2022-08-27T20:01:11.556Z,16.45
2022-08-27T20:03:38.656Z,25.63
2022-08-27T20:06:05.861Z,20.98
2022-08-27T20:08:33.605Z,24.92
2022-08-27T20:11:01.480Z,22.80
2022-08-27T20:13:32.854Z,26.65
2022-08-27T20:16:01.118Z,24.35
2022-08-27T20:18:28.004Z,25.48
2022-08-27T20:20:55.115Z,19.85
2022-08-27T20:23:22.321Z,22.30
2022-08-27T20:25:52.391Z,22.45
2022-08-27T20:28:38.980Z,23.90
2022-08-27T20:31:07.446Z,19.48
2022-08-27T20:33:34.336Z,20.52
2022-08-27T20:36:02.830Z,16.88
2022-08-27T20:38:30.178Z,19.52
2022-08-27T20:40:57.018Z,21.25
2022-08-27T20:43:23.786Z,22.52
2022-08-27T20:45:50.990Z,17.88
2022-08-27T20:48:17.919Z,18.35
2022-08-27T20:50:44.751Z,18.58
2022-08-27T20:53:11.791Z,16.33
2022-08-27T20:55:39.315Z,16.33
2022-08-27T20:58:25.371Z,15.80
2022-08-27T21:00:54.828Z,17.88
2022-08-27T21:03:22.011Z,17.63
2022-08-27T21:05:48.941Z,16.95
2022-08-27T21:08:18.454Z,19.92
2022-08-27T21:10:48.429Z,19.50
2022-08-27T21:13:15.721Z,15.40
2022-08-27T21:15:42.803Z,17.70
2022-08-27T21:18:09.660Z,17.02
2022-08-27T21:20:36.907Z,24.00
2022-08-27T21:23:04.192Z,23.85
2022-08-27T21:25:31.224Z,20.05
2022-08-27T21:27:58.256Z,17.10
2022-08-27T21:30:26.495Z,17.85
2022-08-27T21:32:55.922Z,18.60
2022-08-27T21:37:50.719Z,21.45
2022-08-27T21:40:19.985Z,18.70
2022-08-27T21:42:48.045Z,20.10
2022-08-27T21:45:15.143Z,20.25
2022-08-27T21:47:47.200Z,20.40
2022-08-27T21:50:14.513Z,15.45
2022-08-27T21:52:41.564Z,22.58
2022-08-27T21:55:08.921Z,17.23
2022-08-27T21:57:35.933Z,16.17
2022-08-27T22:00:36.043Z,17.90
2022-08-27T22:03:03.533Z,19.13
2022-08-27T22:05:30.654Z,16.85
2022-08-27T22:07:57.501Z,30.05
2022-08-27T22:10:24.330Z,16.05
2022-08-27T22:12:51.363Z,12.13
2022-08-27T22:15:18.547Z,18.15
2022-08-27T22:17:49.424Z,18.80
2022-08-27T22:20:19.075Z,12.32
2022-08-27T22:22:46.102Z,15.93
2022-08-27T22:25:13.913Z,14.48
2022-08-27T22:27:40.942Z,17.63
2022-08-27T22:30:11.179Z,15.93
2022-08-27T22:32:39.077Z,15.70
2022-08-27T22:35:06.627Z,20.55
2022-08-27T22:37:33.430Z,17.17
2022-08-27T22:40:00.264Z,18.10
2022-08-27T22:42:28.827Z,18.08
2022-08-27T22:44:55.721Z,13.70
2022-08-27T22:47:22.599Z,18.70
2022-08-27T22:49:52.747Z,16.15
2022-08-27T22:52:20.793Z,16.67
2022-08-27T22:54:54.859Z,15.68
2022-08-27T22:57:22.019Z,17.25
2022-08-27T22:59:48.817Z,16.80
2022-08-27T23:02:15.915Z,14.30
2022-08-27T23:05:00.762Z,14.38
2022-08-27T23:07:30.591Z,16.83
2022-08-27T23:09:57.779Z,17.92
2022-08-27T23:12:26.097Z,20.60
2022-08-27T23:14:53.159Z,14.23
2022-08-27T23:17:20.527Z,17.77
2022-08-27T23:19:48.075Z,17.65
2022-08-27T23:22:16.625Z,16.73
2022-08-27T23:25:02.291Z,18.30
2022-08-27T23:27:29.412Z,13.23
2022-08-27T23:29:58.089Z,17.52
2022-08-27T23:32:25.007Z,15.00
2022-08-27T23:34:52.078Z,15.45
2022-08-27T23:37:19.012Z,13.43
2022-08-27T23:39:45.847Z,16.17
2022-08-27T23:42:16.099Z,17.35
2022-08-27T23:44:43.125Z,18.98
2022-08-27T23:47:10.193Z,12.75
2022-08-27T23:49:37.564Z,16.08
2022-08-27T23:52:05.815Z,15.18
2022-08-27T23:54:34.014Z,18.15
2022-08-27T23:57:01.088Z,14.93
2022-08-27T23:59:30.445Z,14.50
